Terminal Aerodrome Forecast
Issued by NWS Shreveport, LA

Home | Current Version | Previous Version | Text Only | Print | Product List | Glossary On
Versions: 1 2 3 4 5 6 7 8 9 10 11 12 13
000
FTUS44 KSHV 111700 RRA
TAFGGG
TAF
KGGG 111750Z 1118/1218 21007KT P6SM FEW045
     FM112300 19006KT P6SM SCT045
     FM120500 14004KT P6SM SKC
     FM121400 23006KT P6SM SCT045=

USA.gov is the U.S. government's official web portal to all federal, state and local government web resources and services.